sensor_id;sensor_type;location;lat;lon;timestamp;temperature;humidity
14604;DHT22;7388;51.078;13.740;2022-10-16T00:01:30;19.70;52.50
14604;DHT22;7388;51.078;13.740;2022-10-16T00:03:57;19.60;52.50
14604;DHT22;7388;51.078;13.740;2022-10-16T00:06:24;19.60;52.80
14604;DHT22;7388;51.078;13.740;2022-10-16T00:08:50;19.60;52.70
14604;DHT22;7388;51.078;13.740;2022-10-16T00:11:25;19.60;52.90
14604;DHT22;7388;51.078;13.740;2022-10-16T00:13:55;19.60;52.80
14604;DHT22;7388;51.078;13.740;2022-10-16T00:16:22;19.60;52.80
14604;DHT22;7388;51.078;13.740;2022-10-16T00:18:47;19.60;52.60
14604;DHT22;7388;51.078;13.740;2022-10-16T00:21:19;19.50;52.60
14604;DHT22;7388;51.078;13.740;2022-10-16T00:23:46;19.50;52.90
14604;DHT22;7388;51.078;13.740;2022-10-16T00:26:17;19.50;52.60
14604;DHT22;7388;51.078;13.740;2022-10-16T00:28:45;19.50;52.90
14604;DHT22;7388;51.078;13.740;2022-10-16T00:31:11;19.50;52.90
14604;DHT22;7388;51.078;13.740;2022-10-16T00:33:39;19.50;52.80
14604;DHT22;7388;51.078;13.740;2022-10-16T00:36:07;19.50;52.80
14604;DHT22;7388;51.078;13.740;2022-10-16T00:38:33;19.50;52.80
14604;DHT22;7388;51.078;13.740;2022-10-16T00:40:59;19.50;52.70
14604;DHT22;7388;51.078;13.740;2022-10-16T00:46:01;19.50;52.60
14604;DHT22;7388;51.078;13.740;2022-10-16T00:48:28;19.40;52.60
14604;DHT22;7388;51.078;13.740;2022-10-16T00:50:54;19.40;52.50
14604;DHT22;7388;51.078;13.740;2022-10-16T00:53:21;19.40;52.40
14604;DHT22;7388;51.078;13.740;2022-10-16T00:55:47;19.40;52.50
14604;DHT22;7388;51.078;13.740;2022-10-16T00:58:13;19.40;52.70
14604;DHT22;7388;51.078;13.740;2022-10-16T01:00:38;19.30;52.70
14604;DHT22;7388;51.078;13.740;2022-10-16T01:03:24;19.40;52.80
14604;DHT22;7388;51.078;13.740;2022-10-16T01:05:59;19.40;52.80
14604;DHT22;7388;51.078;13.740;2022-10-16T01:14:53;19.40;53.00
14604;DHT22;7388;51.078;13.740;2022-10-16T01:17:23;19.40;53.10
14604;DHT22;7388;51.078;13.740;2022-10-16T01:20:08;19.40;53.10
14604;DHT22;7388;51.078;13.740;2022-10-16T01:23:05;19.50;53.30
14604;DHT22;7388;51.078;13.740;2022-10-16T01:29:02;19.50;53.20
14604;DHT22;7388;51.078;13.740;2022-10-16T01:31:33;19.50;53.30
14604;DHT22;7388;51.078;13.740;2022-10-16T01:34:03;19.50;53.50
14604;DHT22;7388;51.078;13.740;2022-10-16T01:36:43;19.50;53.80
14604;DHT22;7388;51.078;13.740;2022-10-16T01:39:11;19.50;53.60
14604;DHT22;7388;51.078;13.740;2022-10-16T01:41:44;19.50;53.60
14604;DHT22;7388;51.078;13.740;2022-10-16T01:44:33;19.60;53.60
14604;DHT22;7388;51.078;13.740;2022-10-16T01:47:00;19.60;53.60
14604;DHT22;7388;51.078;13.740;2022-10-16T01:49:30;19.60;53.80
14604;DHT22;7388;51.078;13.740;2022-10-16T01:51:59;19.70;53.80
14604;DHT22;7388;51.078;13.740;2022-10-16T01:54:28;19.70;53.80
14604;DHT22;7388;51.078;13.740;2022-10-16T01:56:55;19.70;53.80
14604;DHT22;7388;51.078;13.740;2022-10-16T01:59:23;19.70;53.80
14604;DHT22;7388;51.078;13.740;2022-10-16T02:01:54;19.70;53.90
14604;DHT22;7388;51.078;13.740;2022-10-16T02:04:49;19.70;53.90
14604;DHT22;7388;51.078;13.740;2022-10-16T02:07:16;19.70;53.70
14604;DHT22;7388;51.078;13.740;2022-10-16T02:09:42;19.70;53.90
14604;DHT22;7388;51.078;13.740;2022-10-16T02:12:28;19.70;53.70
14604;DHT22;7388;51.078;13.740;2022-10-16T02:14:56;19.80;53.70
14604;DHT22;7388;51.078;13.740;2022-10-16T02:17:22;19.80;53.70
14604;DHT22;7388;51.078;13.740;2022-10-16T02:19:50;19.80;53.60
14604;DHT22;7388;51.078;13.740;2022-10-16T02:22:32;19.80;53.70
14604;DHT22;7388;51.078;13.740;2022-10-16T02:25:05;19.90;53.60
14604;DHT22;7388;51.078;13.740;2022-10-16T02:30:14;19.90;53.50
14604;DHT22;7388;51.078;13.740;2022-10-16T02:32:45;19.90;53.50
14604;DHT22;7388;51.078;13.740;2022-10-16T02:35:12;19.90;53.50
14604;DHT22;7388;51.078;13.740;2022-10-16T02:37:39;19.90;53.50
14604;DHT22;7388;51.078;13.740;2022-10-16T02:40:06;19.90;53.50
14604;DHT22;7388;51.078;13.740;2022-10-16T02:42:38;19.90;53.50
14604;DHT22;7388;51.078;13.740;2022-10-16T02:45:08;19.90;53.40
14604;DHT22;7388;51.078;13.740;2022-10-16T02:47:34;19.90;53.40
14604;DHT22;7388;51.078;13.740;2022-10-16T02:50:00;20.00;53.40
14604;DHT22;7388;51.078;13.740;2022-10-16T02:52:26;20.00;53.40
14604;DHT22;7388;51.078;13.740;2022-10-16T02:54:52;20.00;53.40
14604;DHT22;7388;51.078;13.740;2022-10-16T02:57:18;20.00;53.40
14604;DHT22;7388;51.078;13.740;2022-10-16T02:59:44;20.00;53.30
14604;DHT22;7388;51.078;13.740;2022-10-16T03:02:10;20.00;53.30
14604;DHT22;7388;51.078;13.740;2022-10-16T03:04:37;20.00;53.30
14604;DHT22;7388;51.078;13.740;2022-10-16T03:07:03;20.00;53.20
14604;DHT22;7388;51.078;13.740;2022-10-16T03:09:28;20.00;53.10
14604;DHT22;7388;51.078;13.740;2022-10-16T03:11:54;20.10;53.20
14604;DHT22;7388;51.078;13.740;2022-10-16T03:14:20;20.10;53.10
14604;DHT22;7388;51.078;13.740;2022-10-16T03:16:46;20.00;53.00
14604;DHT22;7388;51.078;13.740;2022-10-16T03:19:11;20.10;53.00
14604;DHT22;7388;51.078;13.740;2022-10-16T03:21:37;20.00;53.00
14604;DHT22;7388;51.078;13.740;2022-10-16T03:24:03;20.00;52.90
14604;DHT22;7388;51.078;13.740;2022-10-16T03:26:29;20.00;52.90
14604;DHT22;7388;51.078;13.740;2022-10-16T03:28:55;20.00;52.90
14604;DHT22;7388;51.078;13.740;2022-10-16T03:31:20;20.00;52.90
14604;DHT22;7388;51.078;13.740;2022-10-16T03:33:46;20.00;52.90
14604;DHT22;7388;51.078;13.740;2022-10-16T03:36:12;20.00;52.80
14604;DHT22;7388;51.078;13.740;2022-10-16T03:38:37;20.00;52.80
14604;DHT22;7388;51.078;13.740;2022-10-16T03:41:03;19.90;52.90
14604;DHT22;7388;51.078;13.740;2022-10-16T03:43:29;19.90;52.90
14604;DHT22;7388;51.078;13.740;2022-10-16T03:45:55;19.90;52.90
14604;DHT22;7388;51.078;13.740;2022-10-16T03:48:21;19.90;52.90
14604;DHT22;7388;51.078;13.740;2022-10-16T03:50:46;19.90;52.90
14604;DHT22;7388;51.078;13.740;2022-10-16T03:53:14;19.90;52.90
14604;DHT22;7388;51.078;13.740;2022-10-16T03:55:41;19.90;52.90
14604;DHT22;7388;51.078;13.740;2022-10-16T03:58:07;19.90;52.90
14604;DHT22;7388;51.078;13.740;2022-10-16T04:00:33;19.90;52.90
14604;DHT22;7388;51.078;13.740;2022-10-16T04:03:00;19.80;52.80
14604;DHT22;7388;51.078;13.740;2022-10-16T04:05:26;19.80;52.90
14604;DHT22;7388;51.078;13.740;2022-10-16T04:07:52;19.80;52.90
14604;DHT22;7388;51.078;13.740;2022-10-16T04:10:18;19.70;53.00
14604;DHT22;7388;51.078;13.740;2022-10-16T04:12:44;19.70;53.10
14604;DHT22;7388;51.078;13.740;2022-10-16T04:15:10;19.70;53.20
14604;DHT22;7388;51.078;13.740;2022-10-16T04:17:36;19.70;53.40
14604;DHT22;7388;51.078;13.740;2022-10-16T04:20:02;19.70;53.40
14604;DHT22;7388;51.078;13.740;2022-10-16T04:22:28;19.70;53.40
14604;DHT22;7388;51.078;13.740;2022-10-16T04:24:54;19.70;53.40
14604;DHT22;7388;51.078;13.740;2022-10-16T04:27:20;19.70;53.60
14604;DHT22;7388;51.078;13.740;2022-10-16T04:29:45;19.70;53.50
14604;DHT22;7388;51.078;13.740;2022-10-16T04:32:11;19.70;53.60
14604;DHT22;7388;51.078;13.740;2022-10-16T04:34:39;19.70;53.40
14604;DHT22;7388;51.078;13.740;2022-10-16T04:37:05;19.80;53.40
14604;DHT22;7388;51.078;13.740;2022-10-16T04:39:31;19.80;53.50
14604;DHT22;7388;51.078;13.740;2022-10-16T04:41:56;19.80;53.40
14604;DHT22;7388;51.078;13.740;2022-10-16T04:44:22;19.80;53.50
14604;DHT22;7388;51.078;13.740;2022-10-16T04:46:50;19.70;53.50
14604;DHT22;7388;51.078;13.740;2022-10-16T04:49:16;19.70;53.50
14604;DHT22;7388;51.078;13.740;2022-10-16T04:51:41;19.70;53.60
14604;DHT22;7388;51.078;13.740;2022-10-16T04:54:09;19.70;53.50
14604;DHT22;7388;51.078;13.740;2022-10-16T04:56:35;19.70;53.40
14604;DHT22;7388;51.078;13.740;2022-10-16T04:59:08;19.70;53.50
14604;DHT22;7388;51.078;13.740;2022-10-16T05:01:34;19.70;53.60
14604;DHT22;7388;51.078;13.740;2022-10-16T05:04:00;19.70;53.70
14604;DHT22;7388;51.078;13.740;2022-10-16T05:06:25;19.70;53.80
14604;DHT22;7388;51.078;13.740;2022-10-16T05:08:51;19.70;53.90
14604;DHT22;7388;51.078;13.740;2022-10-16T05:11:17;19.70;53.80
14604;DHT22;7388;51.078;13.740;2022-10-16T05:13:43;19.70;53.90
14604;DHT22;7388;51.078;13.740;2022-10-16T05:16:08;19.70;53.90
14604;DHT22;7388;51.078;13.740;2022-10-16T05:18:34;19.70;53.90
14604;DHT22;7388;51.078;13.740;2022-10-16T05:21:00;19.70;53.80
14604;DHT22;7388;51.078;13.740;2022-10-16T05:23:25;19.70;53.70
14604;DHT22;7388;51.078;13.740;2022-10-16T05:25:55;19.80;53.60
14604;DHT22;7388;51.078;13.740;2022-10-16T05:28:27;19.80;53.50
14604;DHT22;7388;51.078;13.740;2022-10-16T05:30:53;19.80;53.50
14604;DHT22;7388;51.078;13.740;2022-10-16T05:33:20;19.80;53.50
14604;DHT22;7388;51.078;13.740;2022-10-16T05:35:46;19.80;53.40
14604;DHT22;7388;51.078;13.740;2022-10-16T05:38:12;19.80;53.40
14604;DHT22;7388;51.078;13.740;2022-10-16T05:40:38;19.80;53.40
14604;DHT22;7388;51.078;13.740;2022-10-16T05:43:03;19.80;53.30
14604;DHT22;7388;51.078;13.740;2022-10-16T05:45:30;19.70;53.20
14604;DHT22;7388;51.078;13.740;2022-10-16T05:47:56;19.70;53.30
14604;DHT22;7388;51.078;13.740;2022-10-16T05:50:21;19.70;53.30
14604;DHT22;7388;51.078;13.740;2022-10-16T05:52:47;19.70;53.30
14604;DHT22;7388;51.078;13.740;2022-10-16T05:55:13;19.60;53.10
14604;DHT22;7388;51.078;13.740;2022-10-16T05:57:38;19.60;53.10
14604;DHT22;7388;51.078;13.740;2022-10-16T06:00:05;19.60;53.10
14604;DHT22;7388;51.078;13.740;2022-10-16T06:02:31;19.60;53.20
14604;DHT22;7388;51.078;13.740;2022-10-16T06:04:56;19.60;53.20
14604;DHT22;7388;51.078;13.740;2022-10-16T06:07:22;19.60;53.30
14604;DHT22;7388;51.078;13.740;2022-10-16T06:09:50;19.60;53.20
14604;DHT22;7388;51.078;13.740;2022-10-16T06:12:16;19.60;53.20
14604;DHT22;7388;51.078;13.740;2022-10-16T06:14:42;19.60;53.30
14604;DHT22;7388;51.078;13.740;2022-10-16T06:17:07;19.60;53.30
14604;DHT22;7388;51.078;13.740;2022-10-16T06:19:33;19.60;53.30
14604;DHT22;7388;51.078;13.740;2022-10-16T06:21:59;19.60;53.50
14604;DHT22;7388;51.078;13.740;2022-10-16T06:24:25;19.60;53.60
14604;DHT22;7388;51.078;13.740;2022-10-16T06:26:51;19.60;53.80
14604;DHT22;7388;51.078;13.740;2022-10-16T06:29:17;19.80;53.90
14604;DHT22;7388;51.078;13.740;2022-10-16T06:31:42;19.80;53.90
14604;DHT22;7388;51.078;13.740;2022-10-16T06:34:11;19.80;53.90
14604;DHT22;7388;51.078;13.740;2022-10-16T06:36:38;19.90;53.90
14604;DHT22;7388;51.078;13.740;2022-10-16T06:39:05;19.90;53.90
14604;DHT22;7388;51.078;13.740;2022-10-16T06:41:32;20.00;53.90
14604;DHT22;7388;51.078;13.740;2022-10-16T06:43:58;20.00;53.90
14604;DHT22;7388;51.078;13.740;2022-10-16T06:46:25;20.00;53.80
14604;DHT22;7388;51.078;13.740;2022-10-16T06:48:52;20.10;53.90
14604;DHT22;7388;51.078;13.740;2022-10-16T06:51:21;20.20;54.10
14604;DHT22;7388;51.078;13.740;2022-10-16T06:53:49;20.20;54.00
14604;DHT22;7388;51.078;13.740;2022-10-16T06:56:25;20.30;54.00
14604;DHT22;7388;51.078;13.740;2022-10-16T06:58:52;20.30;53.90
14604;DHT22;7388;51.078;13.740;2022-10-16T07:01:19;20.40;54.10
14604;DHT22;7388;51.078;13.740;2022-10-16T07:03:46;20.50;54.00
14604;DHT22;7388;51.078;13.740;2022-10-16T07:06:14;21.20;54.20
14604;DHT22;7388;51.078;13.740;2022-10-16T07:08:43;20.50;53.70
14604;DHT22;7388;51.078;13.740;2022-10-16T07:11:12;20.60;53.60
14604;DHT22;7388;51.078;13.740;2022-10-16T07:13:40;20.60;53.50
14604;DHT22;7388;51.078;13.740;2022-10-16T07:18:38;20.70;53.50
14604;DHT22;7388;51.078;13.740;2022-10-16T07:21:21;20.70;53.40
14604;DHT22;7388;51.078;13.740;2022-10-16T07:23:54;20.80;53.30
14604;DHT22;7388;51.078;13.740;2022-10-16T07:26:21;20.80;53.20
14604;DHT22;7388;51.078;13.740;2022-10-16T07:28:47;20.80;53.30
14604;DHT22;7388;51.078;13.740;2022-10-16T07:31:15;20.80;53.20
14604;DHT22;7388;51.078;13.740;2022-10-16T07:33:42;20.90;53.20
14604;DHT22;7388;51.078;13.740;2022-10-16T07:36:10;20.90;53.20
14604;DHT22;7388;51.078;13.740;2022-10-16T07:38:36;20.90;53.00
14604;DHT22;7388;51.078;13.740;2022-10-16T07:41:06;20.90;52.90
14604;DHT22;7388;51.078;13.740;2022-10-16T07:43:33;20.90;52.90
14604;DHT22;7388;51.078;13.740;2022-10-16T07:45:59;21.00;53.00
14604;DHT22;7388;51.078;13.740;2022-10-16T07:48:31;21.00;53.10
14604;DHT22;7388;51.078;13.740;2022-10-16T07:51:00;21.00;53.90
14604;DHT22;7388;51.078;13.740;2022-10-16T07:53:27;21.00;53.20
14604;DHT22;7388;51.078;13.740;2022-10-16T07:55:57;21.00;53.10
14604;DHT22;7388;51.078;13.740;2022-10-16T07:58:23;21.10;53.00
14604;DHT22;7388;51.078;13.740;2022-10-16T08:00:49;21.10;53.00
14604;DHT22;7388;51.078;13.740;2022-10-16T08:03:15;21.20;53.00
14604;DHT22;7388;51.078;13.740;2022-10-16T08:05:41;21.30;53.00
14604;DHT22;7388;51.078;13.740;2022-10-16T08:08:10;21.30;52.90
14604;DHT22;7388;51.078;13.740;2022-10-16T08:10:37;21.40;52.90
14604;DHT22;7388;51.078;13.740;2022-10-16T08:13:02;21.50;52.80
14604;DHT22;7388;51.078;13.740;2022-10-16T08:15:28;21.60;52.60
14604;DHT22;7388;51.078;13.740;2022-10-16T08:17:58;21.60;52.60
14604;DHT22;7388;51.078;13.740;2022-10-16T08:20:25;21.70;52.40
14604;DHT22;7388;51.078;13.740;2022-10-16T08:22:51;21.80;52.10
14604;DHT22;7388;51.078;13.740;2022-10-16T08:25:17;21.80;52.00
14604;DHT22;7388;51.078;13.740;2022-10-16T08:27:43;21.80;52.00
14604;DHT22;7388;51.078;13.740;2022-10-16T08:30:10;21.90;52.50
14604;DHT22;7388;51.078;13.740;2022-10-16T08:32:36;21.90;51.90
14604;DHT22;7388;51.078;13.740;2022-10-16T08:35:02;22.00;51.50
14604;DHT22;7388;51.078;13.740;2022-10-16T08:37:32;22.00;51.60
14604;DHT22;7388;51.078;13.740;2022-10-16T08:40:01;22.10;51.70
14604;DHT22;7388;51.078;13.740;2022-10-16T08:50:40;22.40;51.60
14604;DHT22;7388;51.078;13.740;2022-10-16T08:53:07;22.40;51.20
14604;DHT22;7388;51.078;13.740;2022-10-16T08:55:46;22.50;51.00
14604;DHT22;7388;51.078;13.740;2022-10-16T08:58:17;22.70;50.40
14604;DHT22;7388;51.078;13.740;2022-10-16T09:00:47;23.00;50.80
14604;DHT22;7388;51.078;13.740;2022-10-16T09:09:02;24.00;48.10
14604;DHT22;7388;51.078;13.740;2022-10-16T09:12:31;24.40;48.00
14604;DHT22;7388;51.078;13.740;2022-10-16T09:17:23;25.00;45.20
14604;DHT22;7388;51.078;13.740;2022-10-16T09:22:35;25.20;44.70
14604;DHT22;7388;51.078;13.740;2022-10-16T09:25:11;25.30;44.30
14604;DHT22;7388;51.078;13.740;2022-10-16T09:27:38;25.50;43.70
14604;DHT22;7388;51.078;13.740;2022-10-16T09:30:12;25.60;42.10
14604;DHT22;7388;51.078;13.740;2022-10-16T09:32:39;25.60;42.60
14604;DHT22;7388;51.078;13.740;2022-10-16T09:35:15;25.60;41.30
14604;DHT22;7388;51.078;13.740;2022-10-16T09:37:44;25.50;41.80
14604;DHT22;7388;51.078;13.740;2022-10-16T09:40:32;25.30;42.40
14604;DHT22;7388;51.078;13.740;2022-10-16T09:45:55;25.00;43.10
14604;DHT22;7388;51.078;13.740;2022-10-16T09:48:21;24.90;43.50
14604;DHT22;7388;51.078;13.740;2022-10-16T09:50:58;24.90;44.10
14604;DHT22;7388;51.078;13.740;2022-10-16T09:53:27;24.90;44.30
14604;DHT22;7388;51.078;13.740;2022-10-16T09:56:02;24.90;44.40
14604;DHT22;7388;51.078;13.740;2022-10-16T09:58:31;24.90;44.70
14604;DHT22;7388;51.078;13.740;2022-10-16T10:00:58;25.10;44.70
14604;DHT22;7388;51.078;13.740;2022-10-16T10:03:37;25.20;44.60
14604;DHT22;7388;51.078;13.740;2022-10-16T10:06:15;25.30;43.60
14604;DHT22;7388;51.078;13.740;2022-10-16T10:08:53;25.40;44.00
14604;DHT22;7388;51.078;13.740;2022-10-16T10:11:47;25.50;43.20
14604;DHT22;7388;51.078;13.740;2022-10-16T10:19:47;25.50;43.00
14604;DHT22;7388;51.078;13.740;2022-10-16T10:22:21;25.60;43.40
14604;DHT22;7388;51.078;13.740;2022-10-16T10:25:15;25.70;43.00
14604;DHT22;7388;51.078;13.740;2022-10-16T10:30:53;25.80;42.90
14604;DHT22;7388;51.078;13.740;2022-10-16T10:58:00;26.60;41.10
14604;DHT22;7388;51.078;13.740;2022-10-16T11:11:50;27.00;39.90
14604;DHT22;7388;51.078;13.740;2022-10-16T11:17:00;27.40;38.80
14604;DHT22;7388;51.078;13.740;2022-10-16T11:22:27;27.30;38.40
14604;DHT22;7388;51.078;13.740;2022-10-16T11:25:23;27.30;38.40
14604;DHT22;7388;51.078;13.740;2022-10-16T11:30:55;27.20;37.90
14604;DHT22;7388;51.078;13.740;2022-10-16T11:33:41;27.30;38.00
14604;DHT22;7388;51.078;13.740;2022-10-16T11:36:19;27.40;38.00
14604;DHT22;7388;51.078;13.740;2022-10-16T11:41:45;27.20;38.30
14604;DHT22;7388;51.078;13.740;2022-10-16T11:44:19;27.00;38.20
14604;DHT22;7388;51.078;13.740;2022-10-16T11:49:40;27.00;39.00
14604;DHT22;7388;51.078;13.740;2022-10-16T11:52:17;27.00;39.20
14604;DHT22;7388;51.078;13.740;2022-10-16T11:54:56;27.10;39.10
14604;DHT22;7388;51.078;13.740;2022-10-16T11:57:36;27.60;38.80
14604;DHT22;7388;51.078;13.740;2022-10-16T12:00:25;28.10;38.60
14604;DHT22;7388;51.078;13.740;2022-10-16T12:03:18;28.20;38.10
14604;DHT22;7388;51.078;13.740;2022-10-16T12:06:02;29.00;37.60
14604;DHT22;7388;51.078;13.740;2022-10-16T12:08:34;29.50;36.50
14604;DHT22;7388;51.078;13.740;2022-10-16T12:16:32;29.60;35.50
14604;DHT22;7388;51.078;13.740;2022-10-16T12:19:15;29.50;35.70
14604;DHT22;7388;51.078;13.740;2022-10-16T12:21:43;29.40;34.70
14604;DHT22;7388;51.078;13.740;2022-10-16T12:24:36;29.10;34.60
14604;DHT22;7388;51.078;13.740;2022-10-16T12:27:04;28.70;34.90
14604;DHT22;7388;51.078;13.740;2022-10-16T12:29:38;28.40;35.20
14604;DHT22;7388;51.078;13.740;2022-10-16T12:32:19;28.20;35.80
14604;DHT22;7388;51.078;13.740;2022-10-16T12:34:47;28.10;36.30
14604;DHT22;7388;51.078;13.740;2022-10-16T12:37:23;28.10;36.40
14604;DHT22;7388;51.078;13.740;2022-10-16T12:39:54;28.20;36.30
14604;DHT22;7388;51.078;13.740;2022-10-16T12:42:33;28.20;36.00
14604;DHT22;7388;51.078;13.740;2022-10-16T12:45:00;28.20;36.00
14604;DHT22;7388;51.078;13.740;2022-10-16T12:49:58;28.50;36.00
14604;DHT22;7388;51.078;13.740;2022-10-16T12:52:38;28.70;35.70
14604;DHT22;7388;51.078;13.740;2022-10-16T12:55:06;28.90;36.00
14604;DHT22;7388;51.078;13.740;2022-10-16T12:57:41;29.10;36.40
14604;DHT22;7388;51.078;13.740;2022-10-16T13:00:26;29.30;36.30
14604;DHT22;7388;51.078;13.740;2022-10-16T13:06:27;28.90;34.10
14604;DHT22;7388;51.078;13.740;2022-10-16T13:09:10;28.60;34.80
14604;DHT22;7388;51.078;13.740;2022-10-16T13:17:05;27.90;35.60
14604;DHT22;7388;51.078;13.740;2022-10-16T13:20:06;27.70;36.40
14604;DHT22;7388;51.078;13.740;2022-10-16T13:28:06;27.50;38.00
14604;DHT22;7388;51.078;13.740;2022-10-16T13:30:52;27.40;37.80
14604;DHT22;7388;51.078;13.740;2022-10-16T13:36:27;27.30;38.60
14604;DHT22;7388;51.078;13.740;2022-10-16T13:39:15;27.20;38.80
14604;DHT22;7388;51.078;13.740;2022-10-16T13:41:46;27.10;39.20
14604;DHT22;7388;51.078;13.740;2022-10-16T13:44:15;27.00;39.50
14604;DHT22;7388;51.078;13.740;2022-10-16T13:46:43;27.00;39.50
14604;DHT22;7388;51.078;13.740;2022-10-16T13:49:14;26.90;40.20
14604;DHT22;7388;51.078;13.740;2022-10-16T13:51:40;26.80;41.50
14604;DHT22;7388;51.078;13.740;2022-10-16T13:54:09;26.70;43.20
14604;DHT22;7388;51.078;13.740;2022-10-16T13:56:39;26.60;43.00
14604;DHT22;7388;51.078;13.740;2022-10-16T13:59:22;26.60;44.10
14604;DHT22;7388;51.078;13.740;2022-10-16T14:01:48;26.60;44.50
14604;DHT22;7388;51.078;13.740;2022-10-16T14:04:14;26.50;45.20
14604;DHT22;7388;51.078;13.740;2022-10-16T14:06:42;26.50;45.40
14604;DHT22;7388;51.078;13.740;2022-10-16T14:09:38;26.50;45.60
14604;DHT22;7388;51.078;13.740;2022-10-16T14:12:10;26.50;46.00
14604;DHT22;7388;51.078;13.740;2022-10-16T14:14:45;26.40;46.30
14604;DHT22;7388;51.078;13.740;2022-10-16T14:17:26;26.40;46.10
14604;DHT22;7388;51.078;13.740;2022-10-16T14:19:57;26.30;46.70
14604;DHT22;7388;51.078;13.740;2022-10-16T14:22:33;26.30;46.70
14604;DHT22;7388;51.078;13.740;2022-10-16T14:25:01;26.20;47.00
14604;DHT22;7388;51.078;13.740;2022-10-16T14:27:31;26.20;47.40
14604;DHT22;7388;51.078;13.740;2022-10-16T14:30:12;26.20;47.30
14604;DHT22;7388;51.078;13.740;2022-10-16T14:32:41;26.20;47.90
14604;DHT22;7388;51.078;13.740;2022-10-16T14:35:35;26.10;48.10
14604;DHT22;7388;51.078;13.740;2022-10-16T14:38:03;26.10;48.30
14604;DHT22;7388;51.078;13.740;2022-10-16T14:40:35;26.10;48.40
14604;DHT22;7388;51.078;13.740;2022-10-16T14:43:03;26.00;48.60
14604;DHT22;7388;51.078;13.740;2022-10-16T14:45:32;26.00;48.80
14604;DHT22;7388;51.078;13.740;2022-10-16T14:48:00;26.00;48.90
14604;DHT22;7388;51.078;13.740;2022-10-16T14:50:27;26.00;49.20
14604;DHT22;7388;51.078;13.740;2022-10-16T14:52:53;25.90;49.10
14604;DHT22;7388;51.078;13.740;2022-10-16T14:55:19;25.90;49.00
14604;DHT22;7388;51.078;13.740;2022-10-16T14:57:45;25.90;48.60
14604;DHT22;7388;51.078;13.740;2022-10-16T15:00:20;25.90;48.70
14604;DHT22;7388;51.078;13.740;2022-10-16T15:02:48;25.90;48.90
14604;DHT22;7388;51.078;13.740;2022-10-16T15:05:22;25.80;49.30
14604;DHT22;7388;51.078;13.740;2022-10-16T15:07:51;25.80;49.40
14604;DHT22;7388;51.078;13.740;2022-10-16T15:10:20;25.70;49.40
14604;DHT22;7388;51.078;13.740;2022-10-16T15:12:47;25.70;49.60
14604;DHT22;7388;51.078;13.740;2022-10-16T15:15:36;25.70;49.80
14604;DHT22;7388;51.078;13.740;2022-10-16T15:18:03;25.70;49.70
14604;DHT22;7388;51.078;13.740;2022-10-16T15:20:34;25.60;49.70
14604;DHT22;7388;51.078;13.740;2022-10-16T15:23:02;25.60;49.90
14604;DHT22;7388;51.078;13.740;2022-10-16T15:25:33;25.50;50.00
14604;DHT22;7388;51.078;13.740;2022-10-16T15:28:00;25.40;50.10
14604;DHT22;7388;51.078;13.740;2022-10-16T15:30:27;25.40;50.10
14604;DHT22;7388;51.078;13.740;2022-10-16T15:32:52;25.40;50.10
14604;DHT22;7388;51.078;13.740;2022-10-16T15:35:18;25.30;50.10
14604;DHT22;7388;51.078;13.740;2022-10-16T15:37:46;25.30;50.00
14604;DHT22;7388;51.078;13.740;2022-10-16T15:40:12;25.30;50.10
14604;DHT22;7388;51.078;13.740;2022-10-16T15:42:37;25.20;50.20
14604;DHT22;7388;51.078;13.740;2022-10-16T15:45:03;25.20;50.30
14604;DHT22;7388;51.078;13.740;2022-10-16T15:47:29;25.10;50.40
14604;DHT22;7388;51.078;13.740;2022-10-16T15:49:55;25.00;50.30
14604;DHT22;7388;51.078;13.740;2022-10-16T15:52:21;25.00;50.40
14604;DHT22;7388;51.078;13.740;2022-10-16T15:54:46;24.90;50.40
14604;DHT22;7388;51.078;13.740;2022-10-16T15:57:12;24.80;50.50
14604;DHT22;7388;51.078;13.740;2022-10-16T15:59:38;24.80;50.50
14604;DHT22;7388;51.078;13.740;2022-10-16T16:02:03;24.70;50.40
14604;DHT22;7388;51.078;13.740;2022-10-16T16:04:30;24.70;50.40
14604;DHT22;7388;51.078;13.740;2022-10-16T16:06:56;24.60;50.60
14604;DHT22;7388;51.078;13.740;2022-10-16T16:09:22;24.60;50.50
14604;DHT22;7388;51.078;13.740;2022-10-16T16:11:49;24.50;50.60
14604;DHT22;7388;51.078;13.740;2022-10-16T16:14:14;24.40;50.80
14604;DHT22;7388;51.078;13.740;2022-10-16T16:16:41;24.40;50.80
14604;DHT22;7388;51.078;13.740;2022-10-16T16:19:08;24.30;50.70
14604;DHT22;7388;51.078;13.740;2022-10-16T16:21:35;24.30;50.60
14604;DHT22;7388;51.078;13.740;2022-10-16T16:24:00;24.20;50.40
14604;DHT22;7388;51.078;13.740;2022-10-16T16:26:28;24.20;50.60
14604;DHT22;7388;51.078;13.740;2022-10-16T16:28:59;24.10;50.90
14604;DHT22;7388;51.078;13.740;2022-10-16T16:31:26;24.00;50.80
14604;DHT22;7388;51.078;13.740;2022-10-16T16:33:53;23.90;50.80
14604;DHT22;7388;51.078;13.740;2022-10-16T16:36:19;23.90;50.70
14604;DHT22;7388;51.078;13.740;2022-10-16T16:38:46;23.80;50.80
14604;DHT22;7388;51.078;13.740;2022-10-16T16:41:13;23.80;50.80
14604;DHT22;7388;51.078;13.740;2022-10-16T16:43:39;23.70;50.80
14604;DHT22;7388;51.078;13.740;2022-10-16T16:46:05;23.70;51.10
14604;DHT22;7388;51.078;13.740;2022-10-16T16:48:31;23.60;51.00
14604;DHT22;7388;51.078;13.740;2022-10-16T16:51:03;23.60;51.00
14604;DHT22;7388;51.078;13.740;2022-10-16T16:53:29;23.50;51.30
14604;DHT22;7388;51.078;13.740;2022-10-16T16:55:54;23.40;51.10
14604;DHT22;7388;51.078;13.740;2022-10-16T16:58:20;23.40;51.10
14604;DHT22;7388;51.078;13.740;2022-10-16T17:00:46;23.30;50.90
14604;DHT22;7388;51.078;13.740;2022-10-16T17:03:12;23.20;50.90
14604;DHT22;7388;51.078;13.740;2022-10-16T17:05:38;23.10;51.10
14604;DHT22;7388;51.078;13.740;2022-10-16T17:08:06;23.00;51.10
14604;DHT22;7388;51.078;13.740;2022-10-16T17:10:32;22.90;51.30
14604;DHT22;7388;51.078;13.740;2022-10-16T17:12:58;22.90;51.50
14604;DHT22;7388;51.078;13.740;2022-10-16T17:15:24;22.80;51.30
14604;DHT22;7388;51.078;13.740;2022-10-16T17:17:49;22.80;51.30
14604;DHT22;7388;51.078;13.740;2022-10-16T17:20:15;22.80;51.10
14604;DHT22;7388;51.078;13.740;2022-10-16T17:22:41;22.70;51.20
14604;DHT22;7388;51.078;13.740;2022-10-16T17:25:07;22.60;51.00
14604;DHT22;7388;51.078;13.740;2022-10-16T17:27:33;22.50;51.30
14604;DHT22;7388;51.078;13.740;2022-10-16T17:30:01;22.50;51.60
14604;DHT22;7388;51.078;13.740;2022-10-16T17:32:26;22.40;51.60
14604;DHT22;7388;51.078;13.740;2022-10-16T17:34:52;22.40;51.50
14604;DHT22;7388;51.078;13.740;2022-10-16T17:37:18;22.30;51.60
14604;DHT22;7388;51.078;13.740;2022-10-16T17:39:44;22.30;51.50
14604;DHT22;7388;51.078;13.740;2022-10-16T17:42:09;22.20;51.20
14604;DHT22;7388;51.078;13.740;2022-10-16T17:44:35;22.20;51.20
14604;DHT22;7388;51.078;13.740;2022-10-16T17:47:01;22.00;51.70
14604;DHT22;7388;51.078;13.740;2022-10-16T17:49:27;21.90;52.20